Aeroboteco Virtual Airlines! Uma nuvem a frente.



 INFORMAÇÕES METEOROLÓGICAS
METAR FOR PAMD
ADDS - METARS form results

(2201 UTC 21 March 2019)
Data provider http://aviationweather.gov/metar/data/
 
METAR text: PAMD 212151Z AUTO 10024G30KT 10SM OVC015 06/03 A2963 RMK AO2 PK WND 09031/2112 SLP025 T00560033
Conditions at: PAMD (MIDDLETON ISLAND, AK, US) observed 2151 UTC 21 March 2019
Temperature: 5.6°C (42°F)
Dewpoint: 3.3°C (38°F) [RH = 85%]
Pressure (altimeter): 29.63 inches Hg (1003.5 mb)
[Sea-level pressure: 1002.5 mb]
Winds: from the E (100 degrees) at 28 MPH (24 knots; 12.3 m/s)
gusting to 34 MPH (30 knots; 15.4 m/s)
Visibility: 10 or more miles (16+ km)
Ceiling: 1500 feet AGL
Clouds: overcast cloud deck at 1500 feet AGL
Weather: automated observation with no human augmentation;
there may or may not be significant weather present at this time

 MAPA DO AEROPORTO

 INFORMAÇÕES DA PISTA
Pista 02 Tamanho da pista 4178 ft Largura da pista 115 ft
Elevação da pista 100 ft Ranhura da pista 1020 ft Proa da pista 34
Pista 20 Tamanho da pista 4178 ft Largura da pista 115 ft
Elevação da pista 100 ft Ranhura da pista 0 ft Proa da pista 214
Pista 13 Tamanho da pista 1500 ft Largura da pista 125 ft
Elevação da pista 99 ft Ranhura da pista 0 ft Proa da pista 149
Pista 31 Tamanho da pista 1500 ft Largura da pista 125 ft
Elevação da pista 97 ft Ranhura da pista 0 ft Proa da pista 329

 FREQUÊNCIAS DO AEROPORTO

 AUXÍLIOS DE NAVEGAÇÃO PRÓXIMOS AO AEROPORTO